sensor_id;sensor_type;location;lat;lon;timestamp;pressure;altitude;pressure_sealevel;temperature;humidity
50734;BME280;36701;51.798;19.474;2022-12-05T00:01:47;99463.91;;;0.78;100.00
50734;BME280;36701;51.798;19.474;2022-12-05T00:04:13;99462.88;;;1.11;100.00
50734;BME280;36701;51.798;19.474;2022-12-05T00:06:41;99457.69;;;0.94;100.00
50734;BME280;36701;51.798;19.474;2022-12-05T00:09:11;99440.25;;;0.77;100.00
50734;BME280;36701;51.798;19.474;2022-12-05T00:11:41;99426.47;;;1.04;100.00
50734;BME280;36701;51.798;19.474;2022-12-05T00:14:09;99460.53;;;1.31;100.00
50734;BME280;36701;51.798;19.474;2022-12-05T00:16:37;99443.63;;;1.32;100.00
50734;BME280;36701;51.798;19.474;2022-12-05T00:19:06;99459.94;;;1.05;100.00
50734;BME280;36701;51.798;19.474;2022-12-05T00:21:39;99448.94;;;1.08;100.00
50734;BME280;36701;51.798;19.474;2022-12-05T00:24:08;99406.31;;;0.95;100.00
50734;BME280;36701;51.798;19.474;2022-12-05T00:26:36;99450.66;;;1.24;100.00
50734;BME280;36701;51.798;19.474;2022-12-05T00:29:02;99446.03;;;0.80;100.00
50734;BME280;36701;51.798;19.474;2022-12-05T00:31:30;99431.88;;;0.65;100.00
50734;BME280;36701;51.798;19.474;2022-12-05T00:33:59;99448.84;;;0.79;100.00
50734;BME280;36701;51.798;19.474;2022-12-05T00:36:28;99421.78;;;0.60;100.00
50734;BME280;36701;51.798;19.474;2022-12-05T00:38:58;99424.72;;;0.65;100.00
50734;BME280;36701;51.798;19.474;2022-12-05T00:41:26;99456.16;;;0.77;100.00
50734;BME280;36701;51.798;19.474;2022-12-05T00:43:54;99453.34;;;1.01;100.00
50734;BME280;36701;51.798;19.474;2022-12-05T00:46:23;99462.94;;;1.02;100.00
50734;BME280;36701;51.798;19.474;2022-12-05T00:48:51;99424.88;;;0.95;100.00
50734;BME280;36701;51.798;19.474;2022-12-05T00:51:21;99450.03;;;0.76;100.00
50734;BME280;36701;51.798;19.474;2022-12-05T00:53:48;99447.06;;;0.94;100.00
50734;BME280;36701;51.798;19.474;2022-12-05T00:56:21;99451.84;;;0.99;100.00
50734;BME280;36701;51.798;19.474;2022-12-05T00:58:49;99453.34;;;1.01;100.00
50734;BME280;36701;51.798;19.474;2022-12-05T03:02:33;99373.81;;;0.55;100.00
50734;BME280;36701;51.798;19.474;2022-12-05T03:05:13;99373.69;;;0.48;100.00
50734;BME280;36701;51.798;19.474;2022-12-05T03:07:45;99380.00;;;0.70;100.00
50734;BME280;36701;51.798;19.474;2022-12-05T03:10:13;99382.88;;;0.61;100.00
50734;BME280;36701;51.798;19.474;2022-12-05T03:12:43;99381.00;;;0.69;100.00
50734;BME280;36701;51.798;19.474;2022-12-05T03:15:33;99372.53;;;0.89;100.00
50734;BME280;36701;51.798;19.474;2022-12-05T03:18:08;99362.63;;;0.68;100.00
50734;BME280;36701;51.798;19.474;2022-12-05T03:20:56;99350.94;;;0.31;100.00
50734;BME280;36701;51.798;19.474;2022-12-05T03:23:29;99365.91;;;0.47;100.00
50734;BME280;36701;51.798;19.474;2022-12-05T03:26:18;99354.63;;;0.53;100.00
50734;BME280;36701;51.798;19.474;2022-12-05T03:34:21;99349.59;;;0.58;100.00
50734;BME280;36701;51.798;19.474;2022-12-05T03:36:54;99360.50;;;0.63;100.00
50734;BME280;36701;51.798;19.474;2022-12-05T03:39:29;99315.63;;;0.15;100.00
50734;BME280;36701;51.798;19.474;2022-12-05T03:42:18;99355.28;;;0.24;100.00
50734;BME280;36701;51.798;19.474;2022-12-05T03:45:11;99328.28;;;0.28;100.00
50734;BME280;36701;51.798;19.474;2022-12-05T03:47:51;99358.97;;;0.46;100.00
50734;BME280;36701;51.798;19.474;2022-12-05T03:50:27;99377.22;;;0.41;100.00
50734;BME280;36701;51.798;19.474;2022-12-05T03:53:12;99327.22;;;0.14;100.00
50734;BME280;36701;51.798;19.474;2022-12-05T03:55:41;99369.19;;;0.49;100.00
50734;BME280;36701;51.798;19.474;2022-12-05T03:58:16;99382.59;;;-0.07;100.00
50734;BME280;36701;51.798;19.474;2022-12-05T04:00:49;99364.09;;;0.16;100.00
50734;BME280;36701;51.798;19.474;2022-12-05T04:03:30;99389.88;;;0.30;100.00
50734;BME280;36701;51.798;19.474;2022-12-05T04:06:11;99392.41;;;0.47;100.00
50734;BME280;36701;51.798;19.474;2022-12-05T04:08:59;99359.75;;;0.23;100.00
50734;BME280;36701;51.798;19.474;2022-12-05T04:11:30;99404.50;;;0.18;100.00
50734;BME280;36701;51.798;19.474;2022-12-05T04:14:14;99400.13;;;0.25;100.00
50734;BME280;36701;51.798;19.474;2022-12-05T04:16:52;99398.41;;;0.41;100.00
50734;BME280;36701;51.798;19.474;2022-12-05T04:19:36;99392.41;;;0.47;100.00
50734;BME280;36701;51.798;19.474;2022-12-05T04:22:23;99373.66;;;0.25;100.00
50734;BME280;36701;51.798;19.474;2022-12-05T04:24:52;99394.59;;;0.12;100.00
50734;BME280;36701;51.798;19.474;2022-12-05T04:28:24;99361.16;;;0.11;100.00
50734;BME280;36701;51.798;19.474;2022-12-05T04:31:15;99397.09;;;0.36;100.00
50734;BME280;36701;51.798;19.474;2022-12-05T04:33:48;99400.19;;;0.71;100.00
50734;BME280;36701;51.798;19.474;2022-12-05T04:36:24;99399.72;;;0.91;100.00
50734;BME280;36701;51.798;19.474;2022-12-05T04:38:58;99394.88;;;0.71;100.00
50734;BME280;36701;51.798;19.474;2022-12-05T04:41:31;99393.34;;;0.54;100.00
50734;BME280;36701;51.798;19.474;2022-12-05T04:44:03;99389.41;;;0.73;100.00
50734;BME280;36701;51.798;19.474;2022-12-05T04:46:33;99379.16;;;0.93;100.00
50734;BME280;36701;51.798;19.474;2022-12-05T04:49:04;99367.19;;;0.51;100.00
50734;BME280;36701;51.798;19.474;2022-12-05T04:51:35;99389.06;;;0.99;100.00
50734;BME280;36701;51.798;19.474;2022-12-05T04:54:09;99378.72;;;0.81;100.00
50734;BME280;36701;51.798;19.474;2022-12-05T04:56:41;99364.81;;;0.64;100.00
50734;BME280;36701;51.798;19.474;2022-12-05T04:59:09;99384.41;;;0.55;100.00
50734;BME280;36701;51.798;19.474;2022-12-05T05:01:40;99386.34;;;0.61;100.00
50734;BME280;36701;51.798;19.474;2022-12-05T05:04:18;99399.13;;;0.81;100.00
50734;BME280;36701;51.798;19.474;2022-12-05T05:06:46;99359.97;;;0.68;100.00
50734;BME280;36701;51.798;19.474;2022-12-05T05:09:13;99398.19;;;0.74;100.00
50734;BME280;36701;51.798;19.474;2022-12-05T05:11:39;99395.00;;;0.78;100.00
50734;BME280;36701;51.798;19.474;2022-12-05T05:14:06;99397.94;;;0.60;100.00
50734;BME280;36701;51.798;19.474;2022-12-05T05:16:36;99390.87;;;0.52;100.00
50734;BME280;36701;51.798;19.474;2022-12-05T05:19:03;99393.22;;;0.94;100.00
50734;BME280;36701;51.798;19.474;2022-12-05T05:21:34;99399.00;;;0.97;100.00
50734;BME280;36701;51.798;19.474;2022-12-05T05:24:01;99353.19;;;0.88;100.00
50734;BME280;36701;51.798;19.474;2022-12-05T05:26:29;99391.22;;;0.96;100.00
50734;BME280;36701;51.798;19.474;2022-12-05T05:28:56;99354.69;;;0.83;100.00
50734;BME280;36701;51.798;19.474;2022-12-05T05:31:24;99364.78;;;0.87;100.00
50734;BME280;36701;51.798;19.474;2022-12-05T05:33:52;99390.19;;;0.82;100.00
50734;BME280;36701;51.798;19.474;2022-12-05T05:36:20;99381.53;;;0.88;100.00
50734;BME280;36701;51.798;19.474;2022-12-05T05:38:49;99380.84;;;0.86;100.00
50734;BME280;36701;51.798;19.474;2022-12-05T05:41:18;99386.28;;;0.69;100.00
50734;BME280;36701;51.798;19.474;2022-12-05T05:43:45;99369.41;;;0.70;100.00
50734;BME280;36701;51.798;19.474;2022-12-05T05:46:13;99341.50;;;0.75;100.00
50734;BME280;36701;51.798;19.474;2022-12-05T05:48:40;99360.94;;;0.67;100.00
50734;BME280;36701;51.798;19.474;2022-12-05T05:51:09;99351.25;;;0.97;100.00
50734;BME280;36701;51.798;19.474;2022-12-05T05:53:36;99339.22;;;0.71;100.00
50734;BME280;36701;51.798;19.474;2022-12-05T05:56:06;99329.63;;;0.47;100.00
50734;BME280;36701;51.798;19.474;2022-12-05T05:58:32;99371.19;;;0.93;100.00
50734;BME280;36701;51.798;19.474;2022-12-05T06:01:05;99372.03;;;0.70;100.00
50734;BME280;36701;51.798;19.474;2022-12-05T06:03:32;99364.72;;;0.72;100.00
50734;BME280;36701;51.798;19.474;2022-12-05T06:06:00;99380.09;;;0.54;100.00
50734;BME280;36701;51.798;19.474;2022-12-05T06:08:29;99340.34;;;0.54;100.00
50734;BME280;36701;51.798;19.474;2022-12-05T06:11:04;99350.47;;;0.50;100.00
50734;BME280;36701;51.798;19.474;2022-12-05T06:13:31;99376.03;;;0.89;100.00
50734;BME280;36701;51.798;19.474;2022-12-05T06:15:58;99366.50;;;0.57;100.00
50734;BME280;36701;51.798;19.474;2022-12-05T06:18:24;99364.88;;;0.94;100.00
50734;BME280;36701;51.798;19.474;2022-12-05T06:20:55;99354.13;;;0.72;100.00
50734;BME280;36701;51.798;19.474;2022-12-05T06:23:23;99350.25;;;0.60;100.00
50734;BME280;36701;51.798;19.474;2022-12-05T06:25:52;99353.44;;;0.79;100.00
50734;BME280;36701;51.798;19.474;2022-12-05T06:28:19;99360.25;;;0.50;100.00
50734;BME280;36701;51.798;19.474;2022-12-05T06:30:46;99349.75;;;0.80;100.00
50734;BME280;36701;51.798;19.474;2022-12-05T06:33:13;99343.75;;;0.86;100.00
50734;BME280;36701;51.798;19.474;2022-12-05T06:35:40;99351.66;;;0.71;100.00
50734;BME280;36701;51.798;19.474;2022-12-05T06:38:07;99356.16;;;0.70;100.00
50734;BME280;36701;51.798;19.474;2022-12-05T06:40:34;99361.66;;;0.84;100.00
50734;BME280;36701;51.798;19.474;2022-12-05T06:43:04;99364.59;;;0.89;100.00
50734;BME280;36701;51.798;19.474;2022-12-05T06:45:31;99378.19;;;0.40;100.00
50734;BME280;36701;51.798;19.474;2022-12-05T06:47:57;99367.66;;;0.78;100.00
50734;BME280;36701;51.798;19.474;2022-12-05T06:50:23;99360.50;;;0.63;100.00
50734;BME280;36701;51.798;19.474;2022-12-05T06:52:50;99363.06;;;0.71;100.00
50734;BME280;36701;51.798;19.474;2022-12-05T06:55:16;99354.47;;;0.69;100.00
50734;BME280;36701;51.798;19.474;2022-12-05T06:57:42;99354.22;;;1.02;100.00
50734;BME280;36701;51.798;19.474;2022-12-05T07:00:10;99316.78;;;0.82;100.00
50734;BME280;36701;51.798;19.474;2022-12-05T07:02:55;99362.22;;;0.94;100.00
50734;BME280;36701;51.798;19.474;2022-12-05T07:05:22;99351.94;;;0.76;100.00
50734;BME280;36701;51.798;19.474;2022-12-05T07:07:48;99320.47;;;0.58;100.00
50734;BME280;36701;51.798;19.474;2022-12-05T07:10:14;99352.13;;;0.75;100.00
50734;BME280;36701;51.798;19.474;2022-12-05T07:12:41;99344.34;;;0.96;100.00
50734;BME280;36701;51.798;19.474;2022-12-05T07:15:08;99352.91;;;0.98;100.00
50734;BME280;36701;51.798;19.474;2022-12-05T07:17:36;99346.19;;;0.72;100.00
50734;BME280;36701;51.798;19.474;2022-12-05T07:20:06;99362.00;;;0.81;100.00
50734;BME280;36701;51.798;19.474;2022-12-05T07:22:35;99360.59;;;0.93;100.00
50734;BME280;36701;51.798;19.474;2022-12-05T07:25:03;99367.53;;;0.94;100.00
50734;BME280;36701;51.798;19.474;2022-12-05T07:27:29;99340.13;;;0.41;100.00
50734;BME280;36701;51.798;19.474;2022-12-05T07:29:56;99363.88;;;0.95;100.00
50734;BME280;36701;51.798;19.474;2022-12-05T07:32:22;99368.25;;;0.88;100.00
50734;BME280;36701;51.798;19.474;2022-12-05T07:34:49;99325.97;;;0.71;100.00
50734;BME280;36701;51.798;19.474;2022-12-05T07:37:15;99332.94;;;0.72;100.00
50734;BME280;36701;51.798;19.474;2022-12-05T07:39:41;99331.16;;;0.88;100.00
50734;BME280;36701;51.798;19.474;2022-12-05T07:42:08;99358.00;;;0.85;100.00
50734;BME280;36701;51.798;19.474;2022-12-05T07:44:34;99352.00;;;0.91;100.00
50734;BME280;36701;51.798;19.474;2022-12-05T07:47:01;99307.63;;;0.47;100.00
50734;BME280;36701;51.798;19.474;2022-12-05T07:49:28;99349.25;;;0.61;100.00
50734;BME280;36701;51.798;19.474;2022-12-05T07:51:54;99348.16;;;1.08;100.00
50734;BME280;36701;51.798;19.474;2022-12-05T07:54:20;99341.31;;;0.99;100.00
50734;BME280;36701;51.798;19.474;2022-12-05T07:56:47;99349.41;;;0.83;100.00
50734;BME280;36701;51.798;19.474;2022-12-05T07:59:13;99356.25;;;1.15;100.00
50734;BME280;36701;51.798;19.474;2022-12-05T08:01:40;99349.81;;;1.09;100.00
50734;BME280;36701;51.798;19.474;2022-12-05T08:04:06;99355.38;;;0.85;100.00
50734;BME280;36701;51.798;19.474;2022-12-05T08:06:33;99334.28;;;0.68;100.00
50734;BME280;36701;51.798;19.474;2022-12-05T08:08:59;99352.13;;;1.13;100.00
50734;BME280;36701;51.798;19.474;2022-12-05T08:11:28;99352.91;;;0.98;100.00
50734;BME280;36701;51.798;19.474;2022-12-05T08:13:56;99322.87;;;0.83;100.00
50734;BME280;36701;51.798;19.474;2022-12-05T08:16:25;99348.75;;;1.19;100.00
50734;BME280;36701;51.798;19.474;2022-12-05T08:18:57;99304.81;;;1.01;100.00
50734;BME280;36701;51.798;19.474;2022-12-05T08:21:24;99330.47;;;1.24;100.00
50734;BME280;36701;51.798;19.474;2022-12-05T08:23:51;99347.69;;;0.90;100.00
50734;BME280;36701;51.798;19.474;2022-12-05T08:26:24;99352.56;;;1.01;100.00
50734;BME280;36701;51.798;19.474;2022-12-05T08:28:53;99344.34;;;1.26;100.00
50734;BME280;36701;51.798;19.474;2022-12-05T08:31:22;99326.75;;;0.95;100.00
50734;BME280;36701;51.798;19.474;2022-12-05T08:33:50;99324.97;;;0.72;100.00
50734;BME280;36701;51.798;19.474;2022-12-05T08:36:18;99353.34;;;1.25;100.00
50734;BME280;36701;51.798;19.474;2022-12-05T08:38:45;99341.06;;;1.24;100.00
50734;BME280;36701;51.798;19.474;2022-12-05T08:41:13;99342.28;;;1.36;100.00
50734;BME280;36701;51.798;19.474;2022-12-05T08:43:41;99337.78;;;1.22;100.00
50734;BME280;36701;51.798;19.474;2022-12-05T08:46:09;99337.25;;;1.41;100.00
50734;BME280;36701;51.798;19.474;2022-12-05T08:48:36;99298.81;;;1.07;100.00
50734;BME280;36701;51.798;19.474;2022-12-05T08:51:07;99327.34;;;1.35;100.00
50734;BME280;36701;51.798;19.474;2022-12-05T08:53:41;99326.62;;;1.41;100.00
50734;BME280;36701;51.798;19.474;2022-12-05T08:56:10;99343.28;;;1.35;100.00
50734;BME280;36701;51.798;19.474;2022-12-05T08:58:47;99341.62;;;1.64;100.00
50734;BME280;36701;51.798;19.474;2022-12-05T09:01:17;99344.94;;;1.66;100.00
50734;BME280;36701;51.798;19.474;2022-12-05T09:03:53;99340.06;;;1.70;100.00
50734;BME280;36701;51.798;19.474;2022-12-05T09:06:23;99356.53;;;1.35;100.00
50734;BME280;36701;51.798;19.474;2022-12-05T09:09:11;99359.72;;;1.16;100.00
50734;BME280;36701;51.798;19.474;2022-12-05T09:11:49;99352.75;;;1.15;100.00
50734;BME280;36701;51.798;19.474;2022-12-05T09:14:19;99357.25;;;1.29;100.00
50734;BME280;36701;51.798;19.474;2022-12-05T09:16:51;99355.03;;;1.03;100.00
50734;BME280;36701;51.798;19.474;2022-12-05T09:19:29;99346.56;;;0.84;100.00
50734;BME280;36701;51.798;19.474;2022-12-05T09:21:58;99346.37;;;1.09;100.00
50734;BME280;36701;51.798;19.474;2022-12-05T09:24:26;99327.47;;;0.89;100.00
50734;BME280;36701;51.798;19.474;2022-12-05T09:27:04;99332.56;;;1.29;100.00
50734;BME280;36701;51.798;19.474;2022-12-05T09:29:38;99329.53;;;1.47;100.00
50734;BME280;36701;51.798;19.474;2022-12-05T09:32:07;99337.81;;;1.52;100.00
50734;BME280;36701;51.798;19.474;2022-12-05T09:34:47;99329.91;;;1.43;100.00
50734;BME280;36701;51.798;19.474;2022-12-05T09:37:23;99325.63;;;1.42;100.00
50734;BME280;36701;51.798;19.474;2022-12-05T09:39:51;99336.34;;;1.34;100.00
50734;BME280;36701;51.798;19.474;2022-12-05T09:47:44;99321.88;;;1.22;100.00
50734;BME280;36701;51.798;19.474;2022-12-05T09:50:23;99292.69;;;1.07;100.00
50734;BME280;36701;51.798;19.474;2022-12-05T09:53:25;99319.38;;;1.35;100.00
50734;BME280;36701;51.798;19.474;2022-12-05T09:56:22;99308.41;;;1.68;100.00
50734;BME280;36701;51.798;19.474;2022-12-05T09:58:56;99269.81;;;1.06;100.00
50734;BME280;36701;51.798;19.474;2022-12-05T10:02:20;99312.38;;;1.42;100.00
50734;BME280;36701;51.798;19.474;2022-12-05T10:05:01;99318.22;;;1.23;100.00
50734;BME280;36701;51.798;19.474;2022-12-05T10:10:28;99308.50;;;1.60;100.00
50734;BME280;36701;51.798;19.474;2022-12-05T10:15:39;99263.41;;;1.30;100.00
50734;BME280;36701;51.798;19.474;2022-12-05T10:18:34;99304.66;;;1.48;100.00
50734;BME280;36701;51.798;19.474;2022-12-05T10:24:01;99304.00;;;1.60;100.00
50734;BME280;36701;51.798;19.474;2022-12-05T10:26:37;99264.97;;;1.39;100.00
50734;BME280;36701;51.798;19.474;2022-12-05T10:29:32;99300.87;;;1.72;100.00
50734;BME280;36701;51.798;19.474;2022-12-05T10:32:35;99303.94;;;1.54;100.00
50734;BME280;36701;51.798;19.474;2022-12-05T10:35:23;99296.34;;;1.36;100.00
50734;BME280;36701;51.798;19.474;2022-12-05T10:37:59;99285.75;;;1.36;100.00
50734;BME280;36701;51.798;19.474;2022-12-05T10:40:34;99295.88;;;1.62;100.00
50734;BME280;36701;51.798;19.474;2022-12-05T10:43:04;99261.22;;;1.49;100.00
50734;BME280;36701;51.798;19.474;2022-12-05T10:45:31;99280.06;;;1.54;100.00
50734;BME280;36701;51.798;19.474;2022-12-05T10:47:57;99280.25;;;1.37;100.00
50734;BME280;36701;51.798;19.474;2022-12-05T10:50:29;99250.12;;;1.45;100.00
50734;BME280;36701;51.798;19.474;2022-12-05T10:52:59;99253.66;;;1.67;100.00
50734;BME280;36701;51.798;19.474;2022-12-05T10:55:33;99276.56;;;1.90;100.00
50734;BME280;36701;51.798;19.474;2022-12-05T10:58:20;99277.87;;;1.94;100.00
50734;BME280;36701;51.798;19.474;2022-12-05T11:00:55;99235.56;;;1.56;100.00
50734;BME280;36701;51.798;19.474;2022-12-05T11:05:50;99265.22;;;2.39;100.00
50734;BME280;36701;51.798;19.474;2022-12-05T11:08:28;99253.19;;;2.22;100.00
50734;BME280;36701;51.798;19.474;2022-12-05T11:11:07;99263.84;;;2.22;100.00
50734;BME280;36701;51.798;19.474;2022-12-05T11:13:54;99254.09;;;1.86;100.00
50734;BME280;36701;51.798;19.474;2022-12-05T11:16:34;99252.72;;;2.11;100.00
50734;BME280;36701;51.798;19.474;2022-12-05T11:19:31;99249.97;;;2.26;100.00
50734;BME280;36701;51.798;19.474;2022-12-05T11:21:59;99256.91;;;2.21;100.00
50734;BME280;36701;51.798;19.474;2022-12-05T11:24:29;99260.44;;;2.06;100.00
50734;BME280;36701;51.798;19.474;2022-12-05T11:27:23;99252.00;;;2.24;100.00
50734;BME280;36701;51.798;19.474;2022-12-05T11:32:43;99215.03;;;2.01;100.00
50734;BME280;36701;51.798;19.474;2022-12-05T11:37:45;99258.03;;;2.11;100.00
50734;BME280;36701;51.798;19.474;2022-12-05T11:49:38;99250.41;;;1.87;100.00
50734;BME280;36701;51.798;19.474;2022-12-05T11:55:14;99242.88;;;2.55;100.00
50734;BME280;36701;51.798;19.474;2022-12-05T12:12:15;99223.41;;;2.76;100.00
50734;BME280;36701;51.798;19.474;2022-12-05T12:15:06;99220.78;;;2.54;100.00
50734;BME280;36701;51.798;19.474;2022-12-05T12:17:52;99213.63;;;2.27;100.00
50734;BME280;36701;51.798;19.474;2022-12-05T12:27:00;99185.94;;;2.43;100.00
50734;BME280;36701;51.798;19.474;2022-12-05T12:35:16;99163.88;;;2.49;100.00
50734;BME280;36701;51.798;19.474;2022-12-05T12:40:46;99161.88;;;2.51;100.00
50734;BME280;36701;51.798;19.474;2022-12-05T12:46:02;99195.47;;;2.59;100.00
50734;BME280;36701;51.798;19.474;2022-12-05T12:51:14;99160.69;;;2.04;100.00
50734;BME280;36701;51.798;19.474;2022-12-05T12:54:08;99167.59;;;1.98;100.00
50734;BME280;36701;51.798;19.474;2022-12-05T12:57:14;99187.53;;;2.37;100.00
50734;BME280;36701;51.798;19.474;2022-12-05T13:00:42;99193.53;;;2.46;100.00
50734;BME280;36701;51.798;19.474;2022-12-05T13:02:53;99199.56;;;2.61;100.00
50734;BME280;36701;51.798;19.474;2022-12-05T13:08:26;99197.22;;;2.73;100.00
50734;BME280;36701;51.798;19.474;2022-12-05T13:11:07;99198.41;;;2.70;100.00
50734;BME280;36701;51.798;19.474;2022-12-05T13:13:54;99138.44;;;2.33;100.00
50734;BME280;36701;51.798;19.474;2022-12-05T13:16:39;99193.50;;;2.74;100.00
50734;BME280;36701;51.798;19.474;2022-12-05T13:19:37;99186.69;;;2.93;100.00
50734;BME280;36701;51.798;19.474;2022-12-05T13:22:06;99115.72;;;2.59;100.00
50734;BME280;36701;51.798;19.474;2022-12-05T13:24:34;99186.66;;;2.86;100.00
50734;BME280;36701;51.798;19.474;2022-12-05T13:27:12;99176.78;;;2.80;100.00
50734;BME280;36701;51.798;19.474;2022-12-05T13:29:57;99174.12;;;2.80;100.00
50734;BME280;36701;51.798;19.474;2022-12-05T13:32:39;99180.59;;;3.06;100.00
50734;BME280;36701;51.798;19.474;2022-12-05T13:35:08;99175.12;;;2.79;100.00
50734;BME280;36701;51.798;19.474;2022-12-05T13:37:43;99174.88;;;3.09;100.00
50734;BME280;36701;51.798;19.474;2022-12-05T13:40:34;99172.84;;;3.11;100.00
50734;BME280;36701;51.798;19.474;2022-12-05T13:43:26;99172.25;;;2.74;100.00
50734;BME280;36701;51.798;19.474;2022-12-05T13:48:32;99195.94;;;2.69;100.00
50734;BME280;36701;51.798;19.474;2022-12-05T13:51:07;99189.94;;;2.32;100.00
50734;BME280;36701;51.798;19.474;2022-12-05T13:53:38;99188.03;;;2.47;100.00
50734;BME280;36701;51.798;19.474;2022-12-05T13:56:25;99198.44;;;2.21;100.00
50734;BME280;36701;51.798;19.474;2022-12-05T13:58:56;99188.34;;;2.66;100.00
50734;BME280;36701;51.798;19.474;2022-12-05T14:17:26;99171.59;;;2.37;100.00
50734;BME280;36701;51.798;19.474;2022-12-05T14:27:53;99192.03;;;2.36;100.00
50734;BME280;36701;51.798;19.474;2022-12-05T14:30:27;99184.38;;;2.55;100.00
50734;BME280;36701;51.798;19.474;2022-12-05T14:33:02;99157.28;;;2.38;100.00
50734;BME280;36701;51.798;19.474;2022-12-05T14:35:47;99130.19;;;2.49;100.00
50734;BME280;36701;51.798;19.474;2022-12-05T14:38:35;99181.91;;;2.53;100.00
50734;BME280;36701;51.798;19.474;2022-12-05T14:41:32;99141.63;;;2.22;100.00
50734;BME280;36701;51.798;19.474;2022-12-05T14:44:01;99179.44;;;2.52;100.00
50734;BME280;36701;51.798;19.474;2022-12-05T14:46:30;99182.12;;;2.52;100.00
50734;BME280;36701;51.798;19.474;2022-12-05T14:48:57;99178.09;;;2.63;100.00
50734;BME280;36701;51.798;19.474;2022-12-05T14:51:55;99180.28;;;2.52;100.00
50734;BME280;36701;51.798;19.474;2022-12-05T14:54:22;99134.47;;;2.50;100.00
50734;BME280;36701;51.798;19.474;2022-12-05T14:57:04;99131.50;;;2.32;100.00
50734;BME280;36701;51.798;19.474;2022-12-05T14:59:44;99170.34;;;2.68;100.00
50734;BME280;36701;51.798;19.474;2022-12-05T15:02:19;99125.88;;;2.48;100.00
50734;BME280;36701;51.798;19.474;2022-12-05T15:04:58;99171.00;;;2.70;100.00
50734;BME280;36701;51.798;19.474;2022-12-05T15:07:36;99162.53;;;2.95;100.00
50734;BME280;36701;51.798;19.474;2022-12-05T15:10:12;99123.91;;;2.57;100.00
50734;BME280;36701;51.798;19.474;2022-12-05T15:12:53;99163.88;;;2.77;100.00
50734;BME280;36701;51.798;19.474;2022-12-05T15:18:00;99134.94;;;2.61;100.00
50734;BME280;36701;51.798;19.474;2022-12-05T15:20:51;99164.06;;;2.76;100.00
50734;BME280;36701;51.798;19.474;2022-12-05T15:23:39;99127.97;;;2.95;100.00
50734;BME280;36701;51.798;19.474;2022-12-05T15:26:17;99158.47;;;2.99;100.00
50734;BME280;36701;51.798;19.474;2022-12-05T15:28:59;99158.44;;;2.92;100.00
50734;BME280;36701;51.798;19.474;2022-12-05T15:31:28;99163.06;;;3.18;100.00
50734;BME280;36701;51.798;19.474;2022-12-05T15:33:58;99143.31;;;2.93;100.00
50734;BME280;36701;51.798;19.474;2022-12-05T15:36:33;99157.16;;;2.81;100.00
50734;BME280;36701;51.798;19.474;2022-12-05T15:39:16;99127.69;;;2.76;100.00
50734;BME280;36701;51.798;19.474;2022-12-05T15:41:45;99151.81;;;2.75;100.00
50734;BME280;36701;51.798;19.474;2022-12-05T15:44:17;99150.28;;;2.94;100.00
50734;BME280;36701;51.798;19.474;2022-12-05T15:46:55;99145.75;;;2.87;100.00
50734;BME280;36701;51.798;19.474;2022-12-05T15:49:26;99150.78;;;3.17;100.00
50734;BME280;36701;51.798;19.474;2022-12-05T15:52:17;99152.78;;;3.02;100.00
50734;BME280;36701;51.798;19.474;2022-12-05T15:54:50;99146.97;;;2.91;100.00
50734;BME280;36701;51.798;19.474;2022-12-05T15:57:35;99147.31;;;3.17;100.00
50734;BME280;36701;51.798;19.474;2022-12-05T16:00:13;99152.84;;;3.28;100.00
50734;BME280;36701;51.798;19.474;2022-12-05T16:02:57;99148.56;;;3.27;100.00
50734;BME280;36701;51.798;19.474;2022-12-05T16:05:56;99139.47;;;3.02;100.00
50734;BME280;36701;51.798;19.474;2022-12-05T16:08:21;99132.69;;;2.99;100.00
50734;BME280;36701;51.798;19.474;2022-12-05T16:10:50;99140.22;;;3.44;100.00
50734;BME280;36701;51.798;19.474;2022-12-05T16:13:22;99142.84;;;3.31;100.00
50734;BME280;36701;51.798;19.474;2022-12-05T16:15:52;99142.13;;;3.02;100.00
50734;BME280;36701;51.798;19.474;2022-12-05T16:18:25;99126.47;;;2.85;100.00
50734;BME280;36701;51.798;19.474;2022-12-05T16:20:53;99134.09;;;2.95;100.00
50734;BME280;36701;51.798;19.474;2022-12-05T16:23:32;99100.53;;;2.87;100.00
50734;BME280;36701;51.798;19.474;2022-12-05T16:28:37;99096.72;;;3.10;100.00
50734;BME280;36701;51.798;19.474;2022-12-05T16:31:05;99131.34;;;3.23;100.00
50734;BME280;36701;51.798;19.474;2022-12-05T16:33:32;99074.03;;;2.66;100.00
50734;BME280;36701;51.798;19.474;2022-12-05T16:36:10;99133.09;;;2.96;100.00
50734;BME280;36701;51.798;19.474;2022-12-05T16:38:37;99123.75;;;3.20;100.00
50734;BME280;36701;51.798;19.474;2022-12-05T16:41:06;99131.53;;;3.15;100.00
50734;BME280;36701;51.798;19.474;2022-12-05T16:48:37;99092.59;;;3.01;100.00
50734;BME280;36701;51.798;19.474;2022-12-05T16:51:22;99117.63;;;3.13;100.00
50734;BME280;36701;51.798;19.474;2022-12-05T16:53:54;99122.19;;;3.33;100.00
50734;BME280;36701;51.798;19.474;2022-12-05T16:56:25;99087.56;;;3.33;100.00
50734;BME280;36701;51.798;19.474;2022-12-05T16:58:52;99121.97;;;3.27;100.00
50734;BME280;36701;51.798;19.474;2022-12-05T17:01:24;99123.34;;;3.10;100.00
50734;BME280;36701;51.798;19.474;2022-12-05T17:03:53;99113.12;;;3.20;100.00
50734;BME280;36701;51.798;19.474;2022-12-05T17:06:21;99080.31;;;3.00;100.00
50734;BME280;36701;51.798;19.474;2022-12-05T17:08:50;99121.59;;;3.51;100.00
50734;BME280;36701;51.798;19.474;2022-12-05T17:11:21;99114.88;;;3.55;100.00
50734;BME280;36701;51.798;19.474;2022-12-05T17:13:48;99083.84;;;3.20;100.00
50734;BME280;36701;51.798;19.474;2022-12-05T17:16:16;99115.59;;;3.22;100.00
50734;BME280;36701;51.798;19.474;2022-12-05T17:18:43;99114.38;;;3.24;100.00
50734;BME280;36701;51.798;19.474;2022-12-05T17:21:16;99088.97;;;3.22;100.00